Welsford, Canada
Current Conditions -  °F | °C
As of 3:00 PM on Tuesday 21 Oct 2014 (Local Time) from CYSJ Reporting Station
Overcast Overcast  
Wind Chill: 54°   Ceiling: 26000
Heat Index: 54°   Visibility: 15mi
Dew Point: 34°   Wind: 7mph
Humidity: 47%   Direction: 200°SSW
Pressure: 30.15"   Gusts: NA
Location:  45.45°N, 66.35°W
Report Text: CYSJ 211800Z 20006KT 150V230 15SM FEW100 OVC260 12/01 A3015 RMK AC2CI6 SLP212
Loading
Personal Weather Stations






























Interactive Weather Map
Tropical Storm Tracking
New forecast layout! Learn more

10-Day Weather Forecast

Advertisements
Track Severe Weather on mobile